ANA820 RPLL-RJAA
Flight info
| Callsign | ANA820 |
|---|---|
| Flight time | N/A |
| Altitude | 37000 |
| Route | JOM2R JOM A590 MOE Y81 RUTAS |
| Aircraft | B77W/H-L/LB1D1 |
Departure
| Time | 2026-05-07 09:46 |
|---|---|
| Airport | Ninoy Aquino International Airport (RPLL) |
Arrival
| Time | N/A |
|---|---|
| Airport | Narita International Airport (RJAA) |
| Time | Latitude | Longitude | Altitude | Speed | Heading |
|---|---|---|---|---|---|
| 2026-05-07 09:11 | 14.51890 | 121.01266 | 88 ft | 0 kts | 46° |
| 2026-05-07 09:29 | 14.51885 | 121.01261 | 88 ft | 2 kts | 46° |
| 2026-05-07 09:29 | 14.51875 | 121.01250 | 88 ft | 2 kts | 45° |
| 2026-05-07 09:29 | 14.51864 | 121.01239 | 88 ft | 2 kts | 46° |
| 2026-05-07 09:30 | 14.51854 | 121.01228 | 88 ft | 2 kts | 46° |
| 2026-05-07 09:30 | 14.51844 | 121.01216 | 88 ft | 2 kts | 66° |
| 2026-05-07 09:30 | 14.51841 | 121.01201 | 88 ft | 2 kts | 96° |
| 2026-05-07 09:30 | 14.51845 | 121.01186 | 88 ft | 2 kts | 123° |
| 2026-05-07 09:31 | 14.51850 | 121.01180 | 88 ft | 1 kts | 136° |
| 2026-05-07 09:31 | 14.51852 | 121.01178 | 88 ft | 0 kts | 135° |
| 2026-05-07 09:35 | 14.51851 | 121.01178 | 88 ft | 0 kts | 135° |
| 2026-05-07 09:35 | 14.51840 | 121.01190 | 88 ft | 4 kts | 135° |
| 2026-05-07 09:36 | 14.51810 | 121.01221 | 88 ft | 7 kts | 134° |
| 2026-05-07 09:36 | 14.51766 | 121.01268 | 88 ft | 8 kts | 134° |
| 2026-05-07 09:36 | 14.51724 | 121.01310 | 88 ft | 7 kts | 139° |
| 2026-05-07 09:36 | 14.51679 | 121.01316 | 88 ft | 6 kts | 193° |
| 2026-05-07 09:37 | 14.51636 | 121.01315 | 88 ft | 5 kts | 162° |
| 2026-05-07 09:37 | 14.51612 | 121.01328 | 88 ft | 5 kts | 144° |
| 2026-05-07 09:37 | 14.51555 | 121.01381 | 88 ft | 4 kts | 136° |
| 2026-05-07 09:38 | 14.51532 | 121.01405 | 88 ft | 5 kts | 135° |
| 2026-05-07 09:38 | 14.51499 | 121.01438 | 88 ft | 7 kts | 135° |
| 2026-05-07 09:38 | 14.51458 | 121.01481 | 88 ft | 9 kts | 133° |
| 2026-05-07 09:38 | 14.51453 | 121.01486 | 88 ft | 0 kts | 134° |
| 2026-05-07 09:39 | 14.51449 | 121.01491 | 88 ft | 2 kts | 134° |
| 2026-05-07 09:39 | 14.51423 | 121.01519 | 88 ft | 8 kts | 134° |
| 2026-05-07 09:39 | 14.51364 | 121.01579 | 88 ft | 14 kts | 135° |
| 2026-05-07 09:40 | 14.51276 | 121.01671 | 88 ft | 20 kts | 135° |
| 2026-05-07 09:40 | 14.51168 | 121.01782 | 88 ft | 23 kts | 134° |
| 2026-05-07 09:40 | 14.51065 | 121.01888 | 88 ft | 15 kts | 135° |
| 2026-05-07 09:40 | 14.51002 | 121.01902 | 88 ft | 9 kts | 219° |
| 2026-05-07 09:41 | 14.50962 | 121.01843 | 88 ft | 10 kts | 238° |
| 2026-05-07 09:41 | 14.50919 | 121.01770 | 88 ft | 12 kts | 239° |
| 2026-05-07 09:41 | 14.50873 | 121.01686 | 87 ft | 14 kts | 240° |
| 2026-05-07 09:41 | 14.50821 | 121.01592 | 87 ft | 15 kts | 240° |
| 2026-05-07 09:42 | 14.50765 | 121.01491 | 88 ft | 16 kts | 240° |
| 2026-05-07 09:42 | 14.50704 | 121.01382 | 88 ft | 17 kts | 240° |
| 2026-05-07 09:42 | 14.50641 | 121.01269 | 87 ft | 18 kts | 240° |
| 2026-05-07 09:42 | 14.50517 | 121.01044 | 87 ft | 21 kts | 240° |
| 2026-05-07 09:43 | 14.50351 | 121.00745 | 87 ft | 24 kts | 239° |
| 2026-05-07 09:43 | 14.50261 | 121.00584 | 88 ft | 27 kts | 240° |
| 2026-05-07 09:43 | 14.50164 | 121.00411 | 87 ft | 27 kts | 240° |
| 2026-05-07 09:43 | 14.50073 | 121.00245 | 87 ft | 25 kts | 240° |
| 2026-05-07 09:44 | 14.49989 | 121.00094 | 88 ft | 23 kts | 240° |
| 2026-05-07 09:44 | 14.49936 | 120.99998 | 88 ft | 9 kts | 240° |
| 2026-05-07 09:44 | 14.49888 | 120.99969 | 88 ft | 7 kts | 175° |
| 2026-05-07 09:44 | 14.49837 | 120.99988 | 88 ft | 7 kts | 150° |
| 2026-05-07 09:45 | 14.49809 | 121.00024 | 88 ft | 6 kts | 104° |
| 2026-05-07 09:45 | 14.49814 | 121.00066 | 88 ft | 5 kts | 70° |
| 2026-05-07 09:45 | 14.49838 | 121.00112 | 88 ft | 14 kts | 60° |
| 2026-05-07 09:45 | 14.49997 | 121.00399 | 88 ft | 81 kts | 59° |
| 2026-05-07 09:46 | 14.50392 | 121.01107 | 88 ft | 145 kts | 60° |
| 2026-05-07 09:46 | 14.50981 | 121.02149 | 260 ft | 181 kts | 61° |
| 2026-05-07 09:46 | 14.51633 | 121.03265 | 969 ft | 182 kts | 60° |
| 2026-05-07 09:46 | 14.52237 | 121.04394 | 1666 ft | 183 kts | 62° |
| 2026-05-07 09:47 | 14.52881 | 121.05591 | 1984 ft | 201 kts | 61° |
| 2026-05-07 09:47 | 14.53613 | 121.06912 | 2340 ft | 219 kts | 61° |
| 2026-05-07 09:47 | 14.54396 | 121.08323 | 2734 ft | 237 kts | 61° |
| 2026-05-07 09:47 | 14.55247 | 121.09856 | 3156 ft | 253 kts | 60° |
| 2026-05-07 09:48 | 14.56096 | 121.11465 | 3825 ft | 258 kts | 68° |
| 2026-05-07 09:48 | 14.56495 | 121.13283 | 4494 ft | 263 kts | 81° |
| 2026-05-07 09:48 | 14.56726 | 121.15151 | 5210 ft | 266 kts | 82° |
| 2026-05-07 09:48 | 14.56954 | 121.17058 | 5901 ft | 271 kts | 82° |
| 2026-05-07 09:49 | 14.57184 | 121.18986 | 6619 ft | 273 kts | 82° |
| 2026-05-07 09:49 | 14.57416 | 121.20933 | 7391 ft | 273 kts | 82° |
| 2026-05-07 09:49 | 14.57721 | 121.23493 | 8253 ft | 277 kts | 82° |
| 2026-05-07 09:49 | 14.58379 | 121.29024 | 10054 ft | 283 kts | 82° |
| 2026-05-07 09:50 | 14.58626 | 121.31104 | 10404 ft | 299 kts | 82° |
| 2026-05-07 09:50 | 14.58883 | 121.33266 | 10745 ft | 315 kts | 82° |
| 2026-05-07 09:50 | 14.59158 | 121.35580 | 11109 ft | 331 kts | 83° |
| 2026-05-07 09:50 | 14.59445 | 121.38003 | 11481 ft | 347 kts | 83° |
| 2026-05-07 09:51 | 14.59744 | 121.40530 | 11853 ft | 363 kts | 83° |
| 2026-05-07 09:51 | 14.60056 | 121.43172 | 12242 ft | 378 kts | 83° |
| 2026-05-07 09:51 | 14.60381 | 121.45924 | 12713 ft | 390 kts | 83° |
| 2026-05-07 09:51 | 14.60708 | 121.48693 | 13364 ft | 396 kts | 83° |
| 2026-05-07 09:52 | 14.61042 | 121.51532 | 14122 ft | 400 kts | 83° |
| 2026-05-07 09:52 | 14.61379 | 121.54395 | 14890 ft | 405 kts | 83° |
| 2026-05-07 09:52 | 14.61720 | 121.57301 | 15656 ft | 411 kts | 83° |
| 2026-05-07 09:52 | 14.62065 | 121.60231 | 16427 ft | 415 kts | 83° |
| 2026-05-07 09:53 | 14.62415 | 121.63216 | 17150 ft | 420 kts | 82° |
| 2026-05-07 09:53 | 14.62765 | 121.66203 | 17856 ft | 425 kts | 83° |
| 2026-05-07 09:53 | 14.63123 | 121.69265 | 18579 ft | 430 kts | 83° |
| 2026-05-07 09:53 | 14.63481 | 121.72324 | 19276 ft | 435 kts | 83° |
| 2026-05-07 09:54 | 14.63842 | 121.75417 | 19944 ft | 439 kts | 83° |
| 2026-05-07 09:54 | 14.64209 | 121.78565 | 20608 ft | 444 kts | 83° |
| 2026-05-07 09:54 | 14.64578 | 121.81735 | 21270 ft | 449 kts | 83° |
| 2026-05-07 09:54 | 14.64956 | 121.84979 | 21928 ft | 453 kts | 83° |
| 2026-05-07 09:55 | 14.65328 | 121.88180 | 22529 ft | 458 kts | 83° |
| 2026-05-07 09:55 | 14.65709 | 121.91467 | 23143 ft | 463 kts | 83° |
| 2026-05-07 09:55 | 14.66096 | 121.94807 | 23736 ft | 468 kts | 83° |
| 2026-05-07 09:55 | 14.66485 | 121.98166 | 24349 ft | 472 kts | 82° |
| 2026-05-07 09:56 | 14.66873 | 122.01520 | 24945 ft | 476 kts | 82° |
| 2026-05-07 09:56 | 14.67267 | 122.04927 | 25498 ft | 481 kts | 82° |
| 2026-05-07 09:56 | 14.67664 | 122.08374 | 26067 ft | 486 kts | 82° |
| 2026-05-07 09:56 | 14.68064 | 122.11848 | 26640 ft | 491 kts | 82° |
| 2026-05-07 09:57 | 14.68468 | 122.15358 | 27203 ft | 495 kts | 82° |
| 2026-05-07 09:57 | 14.68737 | 122.17703 | 27566 ft | 498 kts | 82° |
| 2026-05-07 09:57 | 14.69290 | 122.22520 | 28301 ft | 505 kts | 82° |
| 2026-05-07 09:57 | 14.69903 | 122.26071 | 28810 ft | 508 kts | 75° |
| 2026-05-07 09:58 | 14.71021 | 122.29517 | 29325 ft | 511 kts | 66° |
| 2026-05-07 09:58 | 14.72654 | 122.32797 | 29977 ft | 511 kts | 57° |
| 2026-05-07 09:58 | 14.74740 | 122.35779 | 30684 ft | 509 kts | 49° |
| 2026-05-07 09:58 | 14.77192 | 122.38373 | 31352 ft | 507 kts | 40° |
| 2026-05-07 09:59 | 14.79953 | 122.40614 | 31951 ft | 507 kts | 36° |
| 2026-05-07 09:59 | 14.80907 | 122.41335 | 32147 ft | 507 kts | 36° |